This is the latest recevied weather packets stored in our database for station/object IK1PCD-11. If no packets are shown the sender has not sent any weather packets the latest 10 day(s).
| Time | Temp. | Humidity | Pressure | Rain* | Wind** | Luminosity | Snow |
|---|---|---|---|---|---|---|---|
| 1778146095 | 9.44° C | 98% | 1013.9 hPa | - | - | - | - |
| 1778145195 | 10° C | 99% | 1013.9 hPa | - | - | - | - |
| 1778144294 | 8.33° C | 100% | 1013.9 hPa | - | - | - | - |
| 1778143394 | 8.33° C | 100% | 1013.6 hPa | - | - | - | - |
| 1778140694 | 9.44° C | 86% | 1013.5 hPa | - | - | - | - |
| 1778139793 | 8.33° C | 93% | 1013.2 hPa | - | - | - | - |
| 1778138893 | 8.33° C | 86% | 1013.4 hPa | - | - | - | - |
| 1778137992 | 8.89° C | 91% | 1013.3 hPa | - | - | - | - |
| 1778137092 | 7.22° C | 96% | 1013.1 hPa | - | - | - | - |
| 1778136192 | 6.67° C | 100% | 1013 hPa | - | - | - | - |
| 1778135291 | 6.11° C | 100% | 1012.8 hPa | - | - | - | - |
| 1778134395 | 6.11° C | 100% | 1012.8 hPa | - | - | - | - |
| 1778133495 | 5.56° C | 100% | 1012.7 hPa | - | - | - | - |
| 1778132595 | 5° C | 100% | 1012.5 hPa | - | - | - | - |
| 1778131694 | 4.44° C | 100% | 1012.3 hPa | - | - | - | - |
| 1778130795 | 4.44° C | 100% | 1012.1 hPa | - | - | - | - |
| 1778129894 | 3.89° C | 100% | 1012 hPa | - | - | - | - |
| 1778126294 | 4.44° C | 100% | 1011.7 hPa | - | - | - | - |
| 1778125394 | 4.44° C | 100% | 1011.6 hPa | - | - | - | - |
| 1778124494 | 3.89° C | 100% | 1011.6 hPa | - | - | - | - |
| 1778123594 | 3.33° C | 100% | 1011.5 hPa | - | - | - | - |
| 1778122694 | 3.33° C | 100% | 1011.7 hPa | - | - | - | - |
| 1778121794 | 3.33° C | 100% | 1011.5 hPa | - | - | - | - |
| 1778120893 | 3.33° C | 100% | 1011.4 hPa | - | - | - | - |
| 1778119993 | 3.89° C | 100% | 1011.6 hPa | - | - | - | - |
* Rain since midnight (hover to see other rain measurements)
** Current wind speed in m/s (hover to see current wind gust speed)